sensor_id;sensor_type;location;lat;lon;timestamp;P1;durP1;ratioP1;P2;durP2;ratioP2
19189;SDS011;9727;50.200;19.038;2023-08-12T00:00:12;14.00;;;8.83;;
19189;SDS011;9727;50.200;19.038;2023-08-12T00:02:39;15.53;;;9.17;;
19189;SDS011;9727;50.200;19.038;2023-08-12T00:05:06;16.67;;;10.23;;
19189;SDS011;9727;50.200;19.038;2023-08-12T00:07:38;16.13;;;10.23;;
19189;SDS011;9727;50.200;19.038;2023-08-12T00:10:06;14.43;;;9.80;;
19189;SDS011;9727;50.200;19.038;2023-08-12T00:12:34;16.97;;;9.53;;
19189;SDS011;9727;50.200;19.038;2023-08-12T00:15:00;16.40;;;9.97;;
19189;SDS011;9727;50.200;19.038;2023-08-12T00:17:28;15.47;;;9.70;;
19189;SDS011;9727;50.200;19.038;2023-08-12T00:19:57;16.47;;;9.83;;
19189;SDS011;9727;50.200;19.038;2023-08-12T00:22:23;14.27;;;9.83;;
19189;SDS011;9727;50.200;19.038;2023-08-12T00:24:51;17.43;;;9.53;;
19189;SDS011;9727;50.200;19.038;2023-08-12T00:27:20;16.77;;;9.50;;
19189;SDS011;9727;50.200;19.038;2023-08-12T00:29:47;16.87;;;9.40;;
19189;SDS011;9727;50.200;19.038;2023-08-12T00:32:13;15.00;;;9.30;;
19189;SDS011;9727;50.200;19.038;2023-08-12T00:34:40;15.50;;;9.50;;
19189;SDS011;9727;50.200;19.038;2023-08-12T00:37:07;13.53;;;9.77;;
19189;SDS011;9727;50.200;19.038;2023-08-12T00:39:34;16.63;;;9.80;;
19189;SDS011;9727;50.200;19.038;2023-08-12T00:42:02;17.27;;;10.03;;
19189;SDS011;9727;50.200;19.038;2023-08-12T00:44:28;17.83;;;9.73;;
19189;SDS011;9727;50.200;19.038;2023-08-12T00:46:57;16.70;;;10.07;;
19189;SDS011;9727;50.200;19.038;2023-08-12T00:49:24;19.37;;;9.33;;
19189;SDS011;9727;50.200;19.038;2023-08-12T00:51:52;16.20;;;10.73;;
19189;SDS011;9727;50.200;19.038;2023-08-12T00:54:19;12.90;;;9.87;;
19189;SDS011;9727;50.200;19.038;2023-08-12T00:56:50;16.53;;;10.23;;
19189;SDS011;9727;50.200;19.038;2023-08-12T00:59:19;16.70;;;10.37;;
19189;SDS011;9727;50.200;19.038;2023-08-12T01:01:46;17.83;;;10.00;;
19189;SDS011;9727;50.200;19.038;2023-08-12T01:04:15;14.87;;;9.30;;
19189;SDS011;9727;50.200;19.038;2023-08-12T01:06:42;13.60;;;9.30;;
19189;SDS011;9727;50.200;19.038;2023-08-12T01:09:11;16.10;;;9.27;;
19189;SDS011;9727;50.200;19.038;2023-08-12T01:11:39;13.43;;;9.83;;
19189;SDS011;9727;50.200;19.038;2023-08-12T01:14:08;12.97;;;9.60;;
19189;SDS011;9727;50.200;19.038;2023-08-12T01:16:39;14.50;;;9.37;;
19189;SDS011;9727;50.200;19.038;2023-08-12T01:19:06;18.17;;;9.60;;
19189;SDS011;9727;50.200;19.038;2023-08-12T01:21:39;15.77;;;9.87;;
19189;SDS011;9727;50.200;19.038;2023-08-12T01:24:08;17.47;;;9.60;;
19189;SDS011;9727;50.200;19.038;2023-08-12T01:26:39;16.33;;;10.20;;
19189;SDS011;9727;50.200;19.038;2023-08-12T01:29:06;14.57;;;9.67;;
19189;SDS011;9727;50.200;19.038;2023-08-12T01:31:34;14.17;;;10.00;;
19189;SDS011;9727;50.200;19.038;2023-08-12T01:34:06;14.17;;;9.67;;
19189;SDS011;9727;50.200;19.038;2023-08-12T01:36:37;13.43;;;9.93;;
19189;SDS011;9727;50.200;19.038;2023-08-12T01:39:05;17.47;;;10.40;;
19189;SDS011;9727;50.200;19.038;2023-08-12T01:41:35;17.03;;;10.90;;
19189;SDS011;9727;50.200;19.038;2023-08-12T01:44:03;15.37;;;10.70;;
19189;SDS011;9727;50.200;19.038;2023-08-12T01:46:33;15.63;;;11.43;;
19189;SDS011;9727;50.200;19.038;2023-08-12T01:49:00;20.90;;;11.57;;
19189;SDS011;9727;50.200;19.038;2023-08-12T01:51:26;18.80;;;11.67;;
19189;SDS011;9727;50.200;19.038;2023-08-12T01:53:53;16.00;;;11.87;;
19189;SDS011;9727;50.200;19.038;2023-08-12T01:58:46;23.07;;;12.57;;
19189;SDS011;9727;50.200;19.038;2023-08-12T02:01:12;17.50;;;11.80;;
19189;SDS011;9727;50.200;19.038;2023-08-12T02:03:39;21.10;;;11.27;;
19189;SDS011;9727;50.200;19.038;2023-08-12T02:06:06;17.03;;;11.43;;
19189;SDS011;9727;50.200;19.038;2023-08-12T02:08:35;19.67;;;12.00;;
19189;SDS011;9727;50.200;19.038;2023-08-12T02:11:01;15.40;;;11.40;;
19189;SDS011;9727;50.200;19.038;2023-08-12T02:13:28;15.60;;;11.23;;
19189;SDS011;9727;50.200;19.038;2023-08-12T02:15:58;17.67;;;11.40;;
19189;SDS011;9727;50.200;19.038;2023-08-12T02:18:27;14.23;;;10.60;;
19189;SDS011;9727;50.200;19.038;2023-08-12T02:20:54;18.60;;;10.97;;
19189;SDS011;9727;50.200;19.038;2023-08-12T02:23:20;14.13;;;11.23;;
19189;SDS011;9727;50.200;19.038;2023-08-12T02:25:47;16.40;;;11.37;;
19189;SDS011;9727;50.200;19.038;2023-08-12T02:28:13;19.50;;;11.43;;
19189;SDS011;9727;50.200;19.038;2023-08-12T02:30:41;14.10;;;10.60;;
19189;SDS011;9727;50.200;19.038;2023-08-12T02:33:12;17.80;;;10.37;;
19189;SDS011;9727;50.200;19.038;2023-08-12T02:35:38;17.87;;;10.87;;
19189;SDS011;9727;50.200;19.038;2023-08-12T02:38:05;18.53;;;10.60;;
19189;SDS011;9727;50.200;19.038;2023-08-12T02:40:31;15.03;;;10.27;;
19189;SDS011;9727;50.200;19.038;2023-08-12T02:42:58;15.43;;;10.17;;
19189;SDS011;9727;50.200;19.038;2023-08-12T02:45:24;14.00;;;9.77;;
19189;SDS011;9727;50.200;19.038;2023-08-12T02:47:51;14.33;;;10.30;;
19189;SDS011;9727;50.200;19.038;2023-08-12T02:50:21;20.23;;;10.37;;
19189;SDS011;9727;50.200;19.038;2023-08-12T02:52:48;12.57;;;9.43;;
19189;SDS011;9727;50.200;19.038;2023-08-12T02:55:15;15.43;;;10.60;;
19189;SDS011;9727;50.200;19.038;2023-08-12T02:57:41;16.43;;;10.10;;
19189;SDS011;9727;50.200;19.038;2023-08-12T03:00:11;15.07;;;9.90;;
19189;SDS011;9727;50.200;19.038;2023-08-12T03:02:41;17.37;;;10.23;;
19189;SDS011;9727;50.200;19.038;2023-08-12T03:05:08;13.80;;;9.97;;
19189;SDS011;9727;50.200;19.038;2023-08-12T03:07:39;16.67;;;10.60;;
19189;SDS011;9727;50.200;19.038;2023-08-12T03:10:06;13.23;;;10.17;;
19189;SDS011;9727;50.200;19.038;2023-08-12T03:12:32;14.50;;;10.50;;
19189;SDS011;9727;50.200;19.038;2023-08-12T03:14:59;14.73;;;9.80;;
19189;SDS011;9727;50.200;19.038;2023-08-12T03:17:26;14.83;;;9.40;;
19189;SDS011;9727;50.200;19.038;2023-08-12T03:19:52;12.73;;;9.80;;
19189;SDS011;9727;50.200;19.038;2023-08-12T03:22:19;16.33;;;11.20;;
19189;SDS011;9727;50.200;19.038;2023-08-12T03:24:47;15.90;;;11.13;;
19189;SDS011;9727;50.200;19.038;2023-08-12T03:27:14;17.07;;;11.20;;
19189;SDS011;9727;50.200;19.038;2023-08-12T03:29:40;18.20;;;11.57;;
19189;SDS011;9727;50.200;19.038;2023-08-12T03:32:07;18.50;;;11.53;;
19189;SDS011;9727;50.200;19.038;2023-08-12T03:34:34;15.00;;;11.70;;
19189;SDS011;9727;50.200;19.038;2023-08-12T03:37:00;16.50;;;11.67;;
19189;SDS011;9727;50.200;19.038;2023-08-12T03:39:27;18.43;;;11.63;;
19189;SDS011;9727;50.200;19.038;2023-08-12T03:41:55;18.60;;;12.20;;
19189;SDS011;9727;50.200;19.038;2023-08-12T03:44:21;15.87;;;10.80;;
19189;SDS011;9727;50.200;19.038;2023-08-12T03:46:48;18.13;;;11.23;;
19189;SDS011;9727;50.200;19.038;2023-08-12T03:49:15;20.20;;;10.80;;
19189;SDS011;9727;50.200;19.038;2023-08-12T03:51:41;13.97;;;9.60;;
19189;SDS011;9727;50.200;19.038;2023-08-12T03:54:08;12.80;;;9.90;;
19189;SDS011;9727;50.200;19.038;2023-08-12T03:56:37;16.63;;;9.60;;
19189;SDS011;9727;50.200;19.038;2023-08-12T03:59:07;14.13;;;9.73;;
19189;SDS011;9727;50.200;19.038;2023-08-12T04:01:34;13.67;;;9.80;;
19189;SDS011;9727;50.200;19.038;2023-08-12T04:04:02;18.40;;;10.40;;
19189;SDS011;9727;50.200;19.038;2023-08-12T04:06:32;18.50;;;10.90;;
19189;SDS011;9727;50.200;19.038;2023-08-12T04:08:58;15.83;;;10.97;;
19189;SDS011;9727;50.200;19.038;2023-08-12T04:11:25;14.77;;;10.87;;
19189;SDS011;9727;50.200;19.038;2023-08-12T04:13:51;19.47;;;10.80;;
19189;SDS011;9727;50.200;19.038;2023-08-12T04:16:22;14.87;;;10.30;;
19189;SDS011;9727;50.200;19.038;2023-08-12T04:18:49;15.73;;;10.63;;
19189;SDS011;9727;50.200;19.038;2023-08-12T04:21:15;16.13;;;10.93;;
19189;SDS011;9727;50.200;19.038;2023-08-12T04:23:42;17.47;;;10.20;;
19189;SDS011;9727;50.200;19.038;2023-08-12T04:26:11;14.50;;;10.40;;
19189;SDS011;9727;50.200;19.038;2023-08-12T04:28:39;15.70;;;10.43;;
19189;SDS011;9727;50.200;19.038;2023-08-12T04:31:06;16.37;;;10.20;;
19189;SDS011;9727;50.200;19.038;2023-08-12T04:33:35;15.10;;;10.33;;
19189;SDS011;9727;50.200;19.038;2023-08-12T04:36:01;14.93;;;10.07;;
19189;SDS011;9727;50.200;19.038;2023-08-12T04:38:32;15.93;;;10.50;;
19189;SDS011;9727;50.200;19.038;2023-08-12T04:41:01;18.27;;;10.50;;
19189;SDS011;9727;50.200;19.038;2023-08-12T04:43:28;17.37;;;10.03;;
19189;SDS011;9727;50.200;19.038;2023-08-12T04:45:57;17.57;;;10.23;;
19189;SDS011;9727;50.200;19.038;2023-08-12T04:48:24;15.40;;;10.60;;
19189;SDS011;9727;50.200;19.038;2023-08-12T04:50:52;18.57;;;9.53;;
19189;SDS011;9727;50.200;19.038;2023-08-12T04:53:19;15.40;;;10.10;;
19189;SDS011;9727;50.200;19.038;2023-08-12T04:55:49;12.57;;;9.33;;
19189;SDS011;9727;50.200;19.038;2023-08-12T04:58:16;16.10;;;9.90;;
19189;SDS011;9727;50.200;19.038;2023-08-12T05:00:43;14.67;;;8.97;;
19189;SDS011;9727;50.200;19.038;2023-08-12T05:03:10;12.43;;;8.60;;
19189;SDS011;9727;50.200;19.038;2023-08-12T05:05:37;14.47;;;8.50;;
19189;SDS011;9727;50.200;19.038;2023-08-12T05:08:06;11.13;;;8.87;;
19189;SDS011;9727;50.200;19.038;2023-08-12T05:10:32;11.63;;;8.20;;
19189;SDS011;9727;50.200;19.038;2023-08-12T05:12:59;18.83;;;9.40;;
19189;SDS011;9727;50.200;19.038;2023-08-12T05:15:31;15.73;;;10.27;;
19189;SDS011;9727;50.200;19.038;2023-08-12T05:18:06;16.83;;;10.60;;
19189;SDS011;9727;50.200;19.038;2023-08-12T05:20:32;12.83;;;9.43;;
19189;SDS011;9727;50.200;19.038;2023-08-12T05:22:59;13.43;;;10.03;;
19189;SDS011;9727;50.200;19.038;2023-08-12T05:25:27;12.57;;;9.00;;
19189;SDS011;9727;50.200;19.038;2023-08-12T05:27:56;12.23;;;9.00;;
19189;SDS011;9727;50.200;19.038;2023-08-12T05:30:23;13.10;;;9.10;;
19189;SDS011;9727;50.200;19.038;2023-08-12T05:32:49;13.40;;;9.37;;
19189;SDS011;9727;50.200;19.038;2023-08-12T05:35:16;13.10;;;9.70;;
19189;SDS011;9727;50.200;19.038;2023-08-12T05:37:46;12.67;;;9.03;;
19189;SDS011;9727;50.200;19.038;2023-08-12T05:40:21;14.87;;;9.50;;
19189;SDS011;9727;50.200;19.038;2023-08-12T05:42:50;14.03;;;10.07;;
19189;SDS011;9727;50.200;19.038;2023-08-12T05:45:16;13.67;;;9.43;;
19189;SDS011;9727;50.200;19.038;2023-08-12T05:47:45;13.60;;;9.43;;
19189;SDS011;9727;50.200;19.038;2023-08-12T05:50:12;13.90;;;9.60;;
19189;SDS011;9727;50.200;19.038;2023-08-12T05:52:39;14.70;;;9.23;;
19189;SDS011;9727;50.200;19.038;2023-08-12T05:55:06;15.17;;;9.27;;
19189;SDS011;9727;50.200;19.038;2023-08-12T05:57:33;13.43;;;8.90;;
19189;SDS011;9727;50.200;19.038;2023-08-12T06:00:01;15.00;;;8.90;;
19189;SDS011;9727;50.200;19.038;2023-08-12T06:02:28;14.17;;;9.20;;
19189;SDS011;9727;50.200;19.038;2023-08-12T06:04:57;13.50;;;8.80;;
19189;SDS011;9727;50.200;19.038;2023-08-12T06:07:24;14.60;;;8.80;;
19189;SDS011;9727;50.200;19.038;2023-08-12T06:09:50;13.43;;;9.27;;
19189;SDS011;9727;50.200;19.038;2023-08-12T06:12:17;10.80;;;8.47;;
19189;SDS011;9727;50.200;19.038;2023-08-12T06:14:44;13.80;;;8.90;;
19189;SDS011;9727;50.200;19.038;2023-08-12T06:17:13;10.90;;;8.73;;
19189;SDS011;9727;50.200;19.038;2023-08-12T06:19:39;14.40;;;8.67;;
19189;SDS011;9727;50.200;19.038;2023-08-12T06:22:06;14.17;;;9.17;;
19189;SDS011;9727;50.200;19.038;2023-08-12T06:24:33;13.50;;;9.43;;
19189;SDS011;9727;50.200;19.038;2023-08-12T06:27:00;14.13;;;8.73;;
19189;SDS011;9727;50.200;19.038;2023-08-12T06:29:27;10.70;;;8.40;;
19189;SDS011;9727;50.200;19.038;2023-08-12T06:31:54;12.40;;;8.80;;
19189;SDS011;9727;50.200;19.038;2023-08-12T06:34:24;11.83;;;8.80;;
19189;SDS011;9727;50.200;19.038;2023-08-12T06:36:52;13.13;;;9.03;;
19189;SDS011;9727;50.200;19.038;2023-08-12T06:39:18;10.47;;;7.73;;
19189;SDS011;9727;50.200;19.038;2023-08-12T06:41:45;11.23;;;8.13;;
19189;SDS011;9727;50.200;19.038;2023-08-12T06:44:11;10.13;;;7.63;;
19189;SDS011;9727;50.200;19.038;2023-08-12T06:46:38;14.00;;;8.37;;
19189;SDS011;9727;50.200;19.038;2023-08-12T06:49:13;12.63;;;7.90;;
19189;SDS011;9727;50.200;19.038;2023-08-12T06:51:44;11.17;;;7.60;;
19189;SDS011;9727;50.200;19.038;2023-08-12T06:54:11;10.73;;;7.73;;
19189;SDS011;9727;50.200;19.038;2023-08-12T06:56:39;12.37;;;7.47;;
19189;SDS011;9727;50.200;19.038;2023-08-12T06:59:11;12.20;;;7.27;;
19189;SDS011;9727;50.200;19.038;2023-08-12T07:01:38;11.30;;;7.77;;
19189;SDS011;9727;50.200;19.038;2023-08-12T07:04:05;9.95;;;6.97;;
19189;SDS011;9727;50.200;19.038;2023-08-12T07:06:34;8.95;;;6.50;;
19189;SDS011;9727;50.200;19.038;2023-08-12T07:09:05;10.40;;;6.70;;
19189;SDS011;9727;50.200;19.038;2023-08-12T07:11:33;9.27;;;6.63;;
19189;SDS011;9727;50.200;19.038;2023-08-12T07:14:00;10.73;;;6.82;;
19189;SDS011;9727;50.200;19.038;2023-08-12T07:16:26;14.07;;;6.72;;
19189;SDS011;9727;50.200;19.038;2023-08-12T07:18:58;9.48;;;6.40;;
19189;SDS011;9727;50.200;19.038;2023-08-12T07:21:25;9.40;;;6.68;;
19189;SDS011;9727;50.200;19.038;2023-08-12T07:23:55;7.75;;;5.88;;
19189;SDS011;9727;50.200;19.038;2023-08-12T07:26:24;10.00;;;5.63;;
19189;SDS011;9727;50.200;19.038;2023-08-12T07:28:51;9.05;;;5.63;;
19189;SDS011;9727;50.200;19.038;2023-08-12T07:31:19;7.75;;;5.50;;
19189;SDS011;9727;50.200;19.038;2023-08-12T07:33:49;10.18;;;5.80;;
19189;SDS011;9727;50.200;19.038;2023-08-12T07:36:15;12.30;;;5.50;;
19189;SDS011;9727;50.200;19.038;2023-08-12T07:38:42;5.18;;;4.40;;
19189;SDS011;9727;50.200;19.038;2023-08-12T07:41:18;7.57;;;4.85;;
19189;SDS011;9727;50.200;19.038;2023-08-12T07:43:48;8.30;;;4.82;;
19189;SDS011;9727;50.200;19.038;2023-08-12T07:46:14;7.13;;;4.53;;
19189;SDS011;9727;50.200;19.038;2023-08-12T07:48:41;7.25;;;4.13;;
19189;SDS011;9727;50.200;19.038;2023-08-12T07:51:08;7.47;;;4.82;;
19189;SDS011;9727;50.200;19.038;2023-08-12T07:53:37;7.97;;;4.15;;
19189;SDS011;9727;50.200;19.038;2023-08-12T07:56:05;7.25;;;4.47;;
19189;SDS011;9727;50.200;19.038;2023-08-12T07:58:36;10.57;;;4.93;;
19189;SDS011;9727;50.200;19.038;2023-08-12T08:01:12;8.82;;;4.72;;
19189;SDS011;9727;50.200;19.038;2023-08-12T08:03:39;7.75;;;4.90;;
19189;SDS011;9727;50.200;19.038;2023-08-12T08:06:06;8.30;;;5.15;;
19189;SDS011;9727;50.200;19.038;2023-08-12T08:08:39;9.18;;;4.32;;
19189;SDS011;9727;50.200;19.038;2023-08-12T08:11:06;7.47;;;4.28;;
19189;SDS011;9727;50.200;19.038;2023-08-12T08:13:33;7.65;;;4.43;;
19189;SDS011;9727;50.200;19.038;2023-08-12T08:16:04;5.90;;;4.15;;
19189;SDS011;9727;50.200;19.038;2023-08-12T08:18:32;7.22;;;4.18;;
19189;SDS011;9727;50.200;19.038;2023-08-12T08:21:02;6.72;;;4.32;;
19189;SDS011;9727;50.200;19.038;2023-08-12T08:23:31;10.63;;;3.85;;
19189;SDS011;9727;50.200;19.038;2023-08-12T08:26:07;6.93;;;3.72;;
19189;SDS011;9727;50.200;19.038;2023-08-12T08:28:37;6.70;;;3.50;;
19189;SDS011;9727;50.200;19.038;2023-08-12T08:31:12;4.72;;;3.47;;
19189;SDS011;9727;50.200;19.038;2023-08-12T08:33:42;4.53;;;3.30;;
19189;SDS011;9727;50.200;19.038;2023-08-12T08:36:11;10.20;;;3.70;;
19189;SDS011;9727;50.200;19.038;2023-08-12T08:38:42;4.82;;;3.85;;
19189;SDS011;9727;50.200;19.038;2023-08-12T08:41:14;7.30;;;3.97;;
19189;SDS011;9727;50.200;19.038;2023-08-12T08:43:42;6.20;;;4.10;;
19189;SDS011;9727;50.200;19.038;2023-08-12T08:46:14;4.25;;;3.55;;
19189;SDS011;9727;50.200;19.038;2023-08-12T08:48:45;6.35;;;3.95;;
19189;SDS011;9727;50.200;19.038;2023-08-12T08:51:43;5.15;;;3.70;;
19189;SDS011;9727;50.200;19.038;2023-08-12T08:54:15;4.07;;;3.20;;
19189;SDS011;9727;50.200;19.038;2023-08-12T08:59:33;4.10;;;3.60;;
19189;SDS011;9727;50.200;19.038;2023-08-12T09:02:16;4.78;;;3.70;;
19189;SDS011;9727;50.200;19.038;2023-08-12T09:04:48;4.30;;;3.10;;
19189;SDS011;9727;50.200;19.038;2023-08-12T09:07:16;4.05;;;3.13;;
19189;SDS011;9727;50.200;19.038;2023-08-12T09:09:44;4.22;;;3.30;;
19189;SDS011;9727;50.200;19.038;2023-08-12T09:12:11;5.47;;;3.28;;
19189;SDS011;9727;50.200;19.038;2023-08-12T09:14:39;4.47;;;3.25;;
19189;SDS011;9727;50.200;19.038;2023-08-12T09:17:06;5.30;;;3.13;;
19189;SDS011;9727;50.200;19.038;2023-08-12T09:19:33;5.38;;;3.42;;
19189;SDS011;9727;50.200;19.038;2023-08-12T09:22:01;4.60;;;3.05;;
19189;SDS011;9727;50.200;19.038;2023-08-12T09:24:32;5.22;;;3.00;;
19189;SDS011;9727;50.200;19.038;2023-08-12T09:27:01;4.45;;;3.10;;
19189;SDS011;9727;50.200;19.038;2023-08-12T09:29:32;5.80;;;3.22;;
19189;SDS011;9727;50.200;19.038;2023-08-12T09:32:14;5.05;;;3.20;;
19189;SDS011;9727;50.200;19.038;2023-08-12T09:34:47;3.97;;;3.08;;
19189;SDS011;9727;50.200;19.038;2023-08-12T09:37:15;3.28;;;2.97;;
19189;SDS011;9727;50.200;19.038;2023-08-12T09:39:46;5.35;;;3.20;;
19189;SDS011;9727;50.200;19.038;2023-08-12T09:42:14;4.55;;;3.28;;
19189;SDS011;9727;50.200;19.038;2023-08-12T09:44:41;4.65;;;2.88;;
19189;SDS011;9727;50.200;19.038;2023-08-12T09:47:08;3.95;;;2.95;;
19189;SDS011;9727;50.200;19.038;2023-08-12T09:49:38;6.88;;;3.00;;
19189;SDS011;9727;50.200;19.038;2023-08-12T09:52:08;4.07;;;2.70;;
19189;SDS011;9727;50.200;19.038;2023-08-12T09:54:47;3.60;;;2.72;;
19189;SDS011;9727;50.200;19.038;2023-08-12T09:57:14;4.78;;;2.70;;
19189;SDS011;9727;50.200;19.038;2023-08-12T09:59:43;3.10;;;2.60;;
19189;SDS011;9727;50.200;19.038;2023-08-12T10:02:12;3.40;;;2.75;;
19189;SDS011;9727;50.200;19.038;2023-08-12T10:04:44;4.03;;;2.80;;
19189;SDS011;9727;50.200;19.038;2023-08-12T10:07:15;3.05;;;2.53;;
19189;SDS011;9727;50.200;19.038;2023-08-12T10:09:48;3.33;;;2.85;;
19189;SDS011;9727;50.200;19.038;2023-08-12T10:12:15;7.93;;;3.00;;
19189;SDS011;9727;50.200;19.038;2023-08-12T10:14:42;3.42;;;2.90;;
19189;SDS011;9727;50.200;19.038;2023-08-12T10:17:12;4.45;;;2.90;;
19189;SDS011;9727;50.200;19.038;2023-08-12T10:19:43;4.50;;;2.92;;
19189;SDS011;9727;50.200;19.038;2023-08-12T10:22:12;3.08;;;2.78;;
19189;SDS011;9727;50.200;19.038;2023-08-12T10:24:40;4.22;;;2.50;;
19189;SDS011;9727;50.200;19.038;2023-08-12T10:27:13;3.50;;;2.70;;
19189;SDS011;9727;50.200;19.038;2023-08-12T10:29:42;4.22;;;2.75;;
19189;SDS011;9727;50.200;19.038;2023-08-12T10:32:12;3.00;;;2.55;;
19189;SDS011;9727;50.200;19.038;2023-08-12T10:34:39;3.60;;;2.67;;
19189;SDS011;9727;50.200;19.038;2023-08-12T10:37:06;6.35;;;2.28;;
19189;SDS011;9727;50.200;19.038;2023-08-12T10:39:41;4.13;;;2.38;;
19189;SDS011;9727;50.200;19.038;2023-08-12T10:42:15;2.38;;;1.80;;
19189;SDS011;9727;50.200;19.038;2023-08-12T10:45:03;6.88;;;2.65;;
19189;SDS011;9727;50.200;19.038;2023-08-12T10:47:31;3.22;;;2.30;;
19189;SDS011;9727;50.200;19.038;2023-08-12T10:49:59;2.65;;;1.90;;
19189;SDS011;9727;50.200;19.038;2023-08-12T10:52:26;4.05;;;2.42;;
19189;SDS011;9727;50.200;19.038;2023-08-12T10:57:41;2.88;;;2.28;;
19189;SDS011;9727;50.200;19.038;2023-08-12T11:00:11;3.28;;;2.28;;
19189;SDS011;9727;50.200;19.038;2023-08-12T11:02:44;5.10;;;2.20;;
19189;SDS011;9727;50.200;19.038;2023-08-12T11:05:14;3.15;;;2.15;;
19189;SDS011;9727;50.200;19.038;2023-08-12T11:07:43;2.78;;;2.30;;
19189;SDS011;9727;50.200;19.038;2023-08-12T11:10:17;2.85;;;2.25;;
19189;SDS011;9727;50.200;19.038;2023-08-12T11:12:53;2.75;;;1.75;;
19189;SDS011;9727;50.200;19.038;2023-08-12T11:15:36;2.50;;;2.00;;
19189;SDS011;9727;50.200;19.038;2023-08-12T11:18:14;2.72;;;2.03;;
19189;SDS011;9727;50.200;19.038;2023-08-12T11:20:41;2.65;;;1.88;;
19189;SDS011;9727;50.200;19.038;2023-08-12T11:23:11;1.73;;;1.58;;
19189;SDS011;9727;50.200;19.038;2023-08-12T11:25:39;2.22;;;2.00;;
19189;SDS011;9727;50.200;19.038;2023-08-12T11:28:08;3.80;;;2.20;;
19189;SDS011;9727;50.200;19.038;2023-08-12T11:30:40;2.80;;;2.05;;
19189;SDS011;9727;50.200;19.038;2023-08-12T11:33:11;4.57;;;2.25;;
19189;SDS011;9727;50.200;19.038;2023-08-12T11:35:39;2.42;;;1.88;;
19189;SDS011;9727;50.200;19.038;2023-08-12T11:38:07;4.85;;;2.30;;
19189;SDS011;9727;50.200;19.038;2023-08-12T11:40:43;4.68;;;2.65;;
19189;SDS011;9727;50.200;19.038;2023-08-12T11:43:14;3.28;;;2.17;;
19189;SDS011;9727;50.200;19.038;2023-08-12T11:45:43;3.40;;;2.40;;
19189;SDS011;9727;50.200;19.038;2023-08-12T11:48:12;2.30;;;2.10;;
19189;SDS011;9727;50.200;19.038;2023-08-12T11:50:39;2.85;;;2.00;;
19189;SDS011;9727;50.200;19.038;2023-08-12T11:53:06;3.85;;;2.38;;
19189;SDS011;9727;50.200;19.038;2023-08-12T11:55:33;3.08;;;2.58;;
19189;SDS011;9727;50.200;19.038;2023-08-12T11:58:00;4.25;;;2.72;;
19189;SDS011;9727;50.200;19.038;2023-08-12T12:00:28;2.35;;;2.10;;
19189;SDS011;9727;50.200;19.038;2023-08-12T12:03:02;4.40;;;2.22;;
19189;SDS011;9727;50.200;19.038;2023-08-12T12:05:30;2.35;;;1.95;;
19189;SDS011;9727;50.200;19.038;2023-08-12T12:07:58;4.30;;;2.20;;
19189;SDS011;9727;50.200;19.038;2023-08-12T12:10:26;4.60;;;2.50;;
19189;SDS011;9727;50.200;19.038;2023-08-12T12:12:54;3.88;;;3.05;;
19189;SDS011;9727;50.200;19.038;2023-08-12T12:15:21;2.63;;;2.22;;
19189;SDS011;9727;50.200;19.038;2023-08-12T12:17:51;4.28;;;2.58;;
19189;SDS011;9727;50.200;19.038;2023-08-12T12:20:19;2.90;;;2.40;;
19189;SDS011;9727;50.200;19.038;2023-08-12T12:22:53;2.95;;;2.40;;
19189;SDS011;9727;50.200;19.038;2023-08-12T12:25:20;4.38;;;2.45;;
19189;SDS011;9727;50.200;19.038;2023-08-12T12:27:50;3.60;;;2.20;;
19189;SDS011;9727;50.200;19.038;2023-08-12T12:30:19;3.22;;;2.40;;
19189;SDS011;9727;50.200;19.038;2023-08-12T12:32:47;3.35;;;2.40;;
19189;SDS011;9727;50.200;19.038;2023-08-12T12:35:18;9.70;;;2.47;;
19189;SDS011;9727;50.200;19.038;2023-08-12T12:37:48;4.60;;;2.55;;
19189;SDS011;9727;50.200;19.038;2023-08-12T12:40:35;5.55;;;2.10;;
19189;SDS011;9727;50.200;19.038;2023-08-12T12:43:07;3.08;;;2.08;;
19189;SDS011;9727;50.200;19.038;2023-08-12T12:45:43;2.45;;;2.25;;
19189;SDS011;9727;50.200;19.038;2023-08-12T12:48:26;7.03;;;2.67;;
19189;SDS011;9727;50.200;19.038;2023-08-12T12:50:56;4.13;;;2.20;;
19189;SDS011;9727;50.200;19.038;2023-08-12T12:53:25;3.30;;;2.50;;
19189;SDS011;9727;50.200;19.038;2023-08-12T12:55:53;3.35;;;2.58;;
19189;SDS011;9727;50.200;19.038;2023-08-12T12:58:26;4.57;;;3.10;;
19189;SDS011;9727;50.200;19.038;2023-08-12T13:00:54;3.65;;;2.65;;
19189;SDS011;9727;50.200;19.038;2023-08-12T13:03:33;5.18;;;2.47;;
19189;SDS011;9727;50.200;19.038;2023-08-12T13:06:08;3.65;;;2.50;;
19189;SDS011;9727;50.200;19.038;2023-08-12T13:08:48;3.35;;;2.50;;
19189;SDS011;9727;50.200;19.038;2023-08-12T13:11:19;2.40;;;2.17;;
19189;SDS011;9727;50.200;19.038;2023-08-12T13:13:46;3.30;;;2.38;;
19189;SDS011;9727;50.200;19.038;2023-08-12T13:16:16;2.65;;;2.17;;
19189;SDS011;9727;50.200;19.038;2023-08-12T13:18:42;5.03;;;2.47;;
19189;SDS011;9727;50.200;19.038;2023-08-12T13:21:26;3.80;;;2.30;;
19189;SDS011;9727;50.200;19.038;2023-08-12T13:23:53;3.60;;;2.40;;
19189;SDS011;9727;50.200;19.038;2023-08-12T13:26:21;2.53;;;2.33;;
19189;SDS011;9727;50.200;19.038;2023-08-12T13:28:49;2.53;;;2.33;;
19189;SDS011;9727;50.200;19.038;2023-08-12T13:31:21;2.53;;;2.33;;
19189;SDS011;9727;50.200;19.038;2023-08-12T13:36:27;4.75;;;2.58;;
19189;SDS011;9727;50.200;19.038;2023-08-12T13:39:04;4.82;;;3.10;;
19189;SDS011;9727;50.200;19.038;2023-08-12T13:41:31;3.05;;;2.70;;
19189;SDS011;9727;50.200;19.038;2023-08-12T13:43:58;4.50;;;2.70;;
19189;SDS011;9727;50.200;19.038;2023-08-12T13:46:26;4.57;;;2.40;;
19189;SDS011;9727;50.200;19.038;2023-08-12T13:48:53;2.58;;;2.08;;
19189;SDS011;9727;50.200;19.038;2023-08-12T13:51:22;3.80;;;2.00;;
19189;SDS011;9727;50.200;19.038;2023-08-12T13:53:50;3.17;;;1.92;;
19189;SDS011;9727;50.200;19.038;2023-08-12T13:56:24;3.03;;;2.20;;
19189;SDS011;9727;50.200;19.038;2023-08-12T13:58:51;6.25;;;2.17;;
19189;SDS011;9727;50.200;19.038;2023-08-12T14:01:18;4.28;;;2.10;;
19189;SDS011;9727;50.200;19.038;2023-08-12T14:03:47;3.05;;;2.45;;
19189;SDS011;9727;50.200;19.038;2023-08-12T14:06:16;3.28;;;1.90;;
19189;SDS011;9727;50.200;19.038;2023-08-12T14:08:42;3.08;;;2.65;;
19189;SDS011;9727;50.200;19.038;2023-08-12T14:11:13;7.68;;;3.10;;
19189;SDS011;9727;50.200;19.038;2023-08-12T14:13:40;3.97;;;2.38;;
19189;SDS011;9727;50.200;19.038;2023-08-12T14:16:07;4.00;;;2.35;;
19189;SDS011;9727;50.200;19.038;2023-08-12T14:18:40;7.38;;;3.28;;
19189;SDS011;9727;50.200;19.038;2023-08-12T14:21:07;3.60;;;2.25;;
19189;SDS011;9727;50.200;19.038;2023-08-12T14:23:35;3.55;;;2.40;;
19189;SDS011;9727;50.200;19.038;2023-08-12T14:26:02;4.97;;;2.50;;
19189;SDS011;9727;50.200;19.038;2023-08-12T14:28:32;3.25;;;2.30;;
19189;SDS011;9727;50.200;19.038;2023-08-12T14:30:59;4.82;;;2.53;;
19189;SDS011;9727;50.200;19.038;2023-08-12T14:33:26;2.60;;;2.40;;
19189;SDS011;9727;50.200;19.038;2023-08-12T14:36:21;3.33;;;2.03;;
19189;SDS011;9727;50.200;19.038;2023-08-12T14:38:47;4.47;;;2.25;;
19189;SDS011;9727;50.200;19.038;2023-08-12T14:41:15;3.55;;;1.90;;
19189;SDS011;9727;50.200;19.038;2023-08-12T14:43:44;3.38;;;2.10;;
19189;SDS011;9727;50.200;19.038;2023-08-12T14:46:14;2.67;;;2.13;;
19189;SDS011;9727;50.200;19.038;2023-08-12T14:48:40;3.17;;;2.10;;
19189;SDS011;9727;50.200;19.038;2023-08-12T14:51:08;4.20;;;2.47;;
19189;SDS011;9727;50.200;19.038;2023-08-12T14:53:39;2.30;;;2.08;;
19189;SDS011;9727;50.200;19.038;2023-08-12T14:56:05;2.50;;;2.30;;
19189;SDS011;9727;50.200;19.038;2023-08-12T14:58:32;3.10;;;2.10;;